This is the latest recevied weather packets stored in our database for station/object KI5GCD-13. If no packets are shown the sender has not sent any weather packets the latest 10 day(s).
| Time | Temp. | Humidity | Pressure | Rain* | Wind** | Luminosity | Snow |
|---|---|---|---|---|---|---|---|
| 1777595988 | 15° C | 68% | 1012.1 hPa | 0 mm | 0 m/s | - | - |
| 1777595687 | 15.56° C | 68% | 1012.4 hPa | 0 mm | 0 m/s | - | - |
| 1777595387 | 15.56° C | 67% | 1012.4 hPa | 0 mm | 0 m/s | - | - |
| 1777595087 | 16.11° C | 65% | 1012.2 hPa | 0 mm | 0 m/s | - | - |
| 1777594787 | 16.11° C | 61% | 1012.2 hPa | 0 mm | 0 m/s | - | - |
| 1777594487 | 16.67° C | 57% | 1012.3 hPa | 0 mm | 0.45 m/s, 263° | - | - |
| 1777594187 | 16.67° C | 54% | 1012.4 hPa | 0 mm | 0.45 m/s, 247° | - | - |
| 1777593887 | 16.67° C | 54% | 1012.4 hPa | 0 mm | 0 m/s | - | - |
| 1777593587 | 16.67° C | 54% | 1012.4 hPa | 0 mm | 0 m/s | - | - |
| 1777593287 | 16.67° C | 52% | 1012.3 hPa | 0 mm | 0.89 m/s, 309° | - | - |
| 1777592987 | 17.22° C | 55% | 1012.6 hPa | 0 mm | 0.89 m/s, 282° | - | - |
| 1777592687 | 17.22° C | 53% | 1012.3 hPa | 0 mm | 0.45 m/s, 239° | - | - |
| 1777592387 | 17.22° C | 55% | 1012.7 hPa | 0 mm | 0.89 m/s, 17° | - | - |
| 1777592087 | 17.22° C | 52% | 1012.4 hPa | 0 mm | 0.89 m/s, 178° | - | - |
| 1777591787 | 17.22° C | 49% | 1012.2 hPa | 0 mm | 0.89 m/s, 268° | - | - |
| 1777591487 | 17.22° C | 49% | 1012.3 hPa | 0 mm | 0.45 m/s, 272° | - | - |
| 1777591191 | 17.22° C | 50% | 1012.4 hPa | 0 mm | 0.45 m/s, 29° | - | - |
| 1777590887 | 17.22° C | 48% | 1012.4 hPa | 0 mm | 0.89 m/s, 315° | - | - |
| 1777590587 | 17.22° C | 47% | 1012.2 hPa | 0 mm | 0.89 m/s, 217° | - | - |
| 1777590287 | 17.78° C | 47% | 1012.3 hPa | 0 mm | 0.89 m/s, 268° | - | - |
| 1777589987 | 17.78° C | 48% | 1012.3 hPa | 0 mm | 1.79 m/s, 63° | - | - |
| 1777589687 | 18.33° C | 46% | 1012.3 hPa | 0 mm | 2.24 m/s, 34° | - | - |
| 1777589387 | 17.78° C | 47% | 1012.3 hPa | 0 mm | 1.79 m/s, 84° | - | - |
| 1777589087 | 17.78° C | 47% | 1012.2 hPa | 0 mm | 1.34 m/s, 76° | - | - |
| 1777588787 | 17.78° C | 50% | 1012.2 hPa | 0 mm | 0.45 m/s, 274° | - | - |
* Rain latest hour (hover to see other rain measurements)
** Current wind speed in m/s (hover to see current wind gust speed)